Time,TemperatureF,DewpointF,PressureIn,WindDirection,WindDirectionDegrees,WindSpeedMPH,WindSpeedGustMPH,Humidity,HourlyPrecipIn,Conditions,Clouds,dailyrainin,SoftwareType,DateUTC
2013-09-29 00:01:00,61.0,54.6,30.11,North,0,0.0,0.0,79,0.00,,,0.00,WUHU216HW,2013-09-29 04:01:00,
2013-09-29 00:06:00,61.0,54.6,30.11,North,0,0.0,0.0,79,0.00,,,0.00,WUHU216HW,2013-09-29 04:06:00,
2013-09-29 00:29:00,60.7,54.5,30.11,NNE,23,0.0,0.0,80,0.00,,,0.00,WUHU216HW,2013-09-29 04:29:00,
2013-09-29 00:34:00,60.7,54.5,30.11,NNE,23,0.0,0.0,80,0.00,,,0.00,WUHU216HW,2013-09-29 04:34:00,
2013-09-29 00:59:00,60.1,54.4,30.11,NNE,23,0.0,0.0,81,0.00,,,0.00,WUHU216HW,2013-09-29 04:59:00,
2013-09-29 01:04:00,60.1,54.4,30.11,NNE,23,0.0,0.0,81,0.00,,,0.00,WUHU216HW,2013-09-29 05:04:00,
2013-09-29 01:09:00,60.1,54.4,30.11,NNE,23,0.0,0.0,81,0.00,,,0.00,WUHU216HW,2013-09-29 05:09:00,
2013-09-29 01:30:00,59.6,54.1,30.10,NE,45,0.0,0.0,82,0.00,,,0.00,WUHU216HW,2013-09-29 05:30:00,
2013-09-29 01:35:00,59.6,54.1,30.10,NE,45,0.0,0.0,82,0.00,,,0.00,WUHU216HW,2013-09-29 05:35:00,
2013-09-29 02:00:00,59.4,53.9,30.10,North,0,0.0,0.0,82,0.00,,,0.00,WUHU216HW,2013-09-29 06:00:00,
2013-09-29 02:05:00,59.4,53.9,30.10,North,0,0.0,0.0,82,0.00,,,0.00,WUHU216HW,2013-09-29 06:05:00,
2013-09-29 02:30:00,58.5,53.4,30.10,NW,315,0.0,0.0,83,0.00,,,0.00,WUHU216HW,2013-09-29 06:30:00,
2013-09-29 02:35:00,58.5,53.4,30.10,NW,315,0.0,0.0,83,0.00,,,0.00,WUHU216HW,2013-09-29 06:35:00,
2013-09-29 03:00:00,57.8,52.9,30.09,NNW,338,0.0,0.0,84,0.00,,,0.00,WUHU216HW,2013-09-29 07:00:00,
2013-09-29 03:05:00,57.8,52.9,30.09,NNW,338,0.0,0.0,84,0.00,,,0.00,WUHU216HW,2013-09-29 07:05:00,
2013-09-29 03:30:00,58.1,53.3,30.08,West,270,0.0,0.0,84,0.00,,,0.00,WUHU216HW,2013-09-29 07:30:00,
2013-09-29 03:35:00,58.1,53.3,30.08,West,270,0.0,0.0,84,0.00,,,0.00,WUHU216HW,2013-09-29 07:35:00,
2013-09-29 04:00:00,57.8,52.9,30.08,WNW,293,0.0,0.0,84,0.00,,,0.00,WUHU216HW,2013-09-29 08:00:00,
2013-09-29 04:05:00,57.8,52.9,30.08,WNW,293,0.0,0.0,84,0.00,,,0.00,WUHU216HW,2013-09-29 08:05:00,
2013-09-29 04:30:00,57.6,52.7,30.08,West,270,0.0,0.0,84,0.00,,,0.00,WUHU216HW,2013-09-29 08:30:00,
2013-09-29 04:35:00,57.6,52.7,30.08,West,270,0.0,0.0,84,0.00,,,0.00,WUHU216HW,2013-09-29 08:35:00,
2013-09-29 05:00:00,56.9,52.0,30.07,NW,315,0.0,0.0,84,0.00,,,0.00,WUHU216HW,2013-09-29 09:00:00,
2013-09-29 05:05:00,56.9,52.0,30.07,NW,315,0.0,0.0,84,0.00,,,0.00,WUHU216HW,2013-09-29 09:05:00,
2013-09-29 05:30:00,56.2,51.3,30.07,NNW,338,0.0,0.0,84,0.00,,,0.00,WUHU216HW,2013-09-29 09:30:00,
2013-09-29 05:35:00,56.2,51.3,30.07,NNW,338,0.0,0.0,84,0.00,,,0.00,WUHU216HW,2013-09-29 09:35:00,
2013-09-29 06:00:00,55.8,51.3,30.08,NNW,338,0.0,0.0,85,0.00,,,0.00,WUHU216HW,2013-09-29 10:00:00,
2013-09-29 06:05:00,55.8,51.3,30.08,NNW,338,0.0,0.0,85,0.00,,,0.00,WUHU216HW,2013-09-29 10:05:00,
2013-09-29 06:30:00,55.8,51.3,30.08,North,0,0.0,0.0,85,0.00,,,0.00,WUHU216HW,2013-09-29 10:30:00,
2013-09-29 06:35:00,55.8,51.3,30.08,North,0,0.0,0.0,85,0.00,,,0.00,WUHU216HW,2013-09-29 10:35:00,
2013-09-29 07:00:00,55.3,51.1,30.09,North,0,0.0,0.0,86,0.00,,,0.00,WUHU216HW,2013-09-29 11:00:00,
2013-09-29 07:05:00,55.3,51.1,30.09,North,0,0.0,0.0,86,0.00,,,0.00,WUHU216HW,2013-09-29 11:05:00,
2013-09-29 07:30:00,55.4,51.3,30.09,North,0,0.0,0.0,86,0.00,,,0.00,WUHU216HW,2013-09-29 11:30:00,
2013-09-29 07:35:00,55.4,51.3,30.09,North,0,0.0,0.0,86,0.00,,,0.00,WUHU216HW,2013-09-29 11:35:00,
2013-09-29 08:00:00,55.4,51.3,30.10,North,0,0.0,0.0,86,0.00,,,0.00,WUHU216HW,2013-09-29 12:00:00,
2013-09-29 08:05:00,55.4,51.3,30.10,North,0,0.0,0.0,86,0.00,,,0.00,WUHU216HW,2013-09-29 12:05:00,
2013-09-29 08:30:00,55.8,51.9,30.09,North,0,0.0,0.0,87,0.00,,,0.00,WUHU216HW,2013-09-29 12:30:00,
2013-09-29 08:35:00,55.8,51.9,30.09,North,0,0.0,0.0,87,0.00,,,0.00,WUHU216HW,2013-09-29 12:35:00,
2013-09-29 09:00:00,56.9,53.0,30.09,North,0,0.7,0.7,87,0.00,,,0.00,WUHU216HW,2013-09-29 13:00:00,
2013-09-29 09:05:00,56.9,53.0,30.09,North,0,0.7,0.7,87,0.00,,,0.00,WUHU216HW,2013-09-29 13:05:00,
2013-09-29 09:30:00,57.8,53.9,30.08,WNW,293,0.0,0.0,87,0.00,,,0.00,WUHU216HW,2013-09-29 13:30:00,
2013-09-29 09:35:00,57.8,53.9,30.08,WNW,293,0.0,0.0,87,0.00,,,0.00,WUHU216HW,2013-09-29 13:35:00,
2013-09-29 10:00:00,59.0,54.9,30.09,NW,315,0.9,0.9,86,0.00,,,0.00,WUHU216HW,2013-09-29 14:00:00,
2013-09-29 10:05:00,59.0,54.9,30.09,NW,315,0.9,0.9,86,0.00,,,0.00,WUHU216HW,2013-09-29 14:05:00,
2013-09-29 10:30:00,60.5,55.4,30.08,ESE,113,0.4,0.4,83,0.00,,,0.00,WUHU216HW,2013-09-29 14:30:00,
2013-09-29 10:35:00,60.5,55.4,30.08,ESE,113,0.4,0.4,83,0.00,,,0.00,WUHU216HW,2013-09-29 14:35:00,
2013-09-29 11:00:00,62.3,55.3,30.08,North,0,1.3,1.3,78,0.00,,,0.00,WUHU216HW,2013-09-29 15:00:00,
2013-09-29 11:05:00,62.3,55.3,30.08,North,0,1.3,1.3,78,0.00,,,0.00,WUHU216HW,2013-09-29 15:05:00,
2013-09-29 11:30:00,63.7,55.3,30.08,East,90,0.4,0.4,74,0.00,,,0.00,WUHU216HW,2013-09-29 15:30:00,
2013-09-29 11:35:00,63.7,55.3,30.08,East,90,0.4,0.4,74,0.00,,,0.00,WUHU216HW,2013-09-29 15:35:00,
2013-09-29 12:00:00,65.0,55.4,30.07,NE,45,0.7,0.7,71,0.00,,,0.00,WUHU216HW,2013-09-29 16:00:00,
2013-09-29 12:05:00,65.0,55.4,30.07,NE,45,0.7,0.7,71,0.00,,,0.00,WUHU216HW,2013-09-29 16:05:00,
2013-09-29 12:30:00,67.0,55.2,30.06,NNW,338,5.4,5.4,66,0.00,,,0.00,WUHU216HW,2013-09-29 16:30:00,
2013-09-29 12:35:00,67.0,55.2,30.06,NNW,338,5.4,5.4,66,0.00,,,0.00,WUHU216HW,2013-09-29 16:35:00,
2013-09-29 13:00:00,68.4,56.2,30.05,NNW,338,0.9,0.9,65,0.00,,,0.00,WUHU216HW,2013-09-29 17:00:00,
2013-09-29 13:05:00,68.4,56.2,30.05,NNW,338,0.9,0.9,65,0.00,,,0.00,WUHU216HW,2013-09-29 17:05:00,
2013-09-29 13:30:00,70.4,56.3,30.03,ENE,68,1.1,1.1,61,0.00,,,0.00,WUHU216HW,2013-09-29 17:30:00,
2013-09-29 13:35:00,70.4,56.3,30.03,ENE,68,1.1,1.1,61,0.00,,,0.00,WUHU216HW,2013-09-29 17:35:00,
2013-09-29 14:00:00,72.0,56.3,30.01,ENE,68,1.3,1.3,58,0.00,,,0.00,WUHU216HW,2013-09-29 18:00:00,
2013-09-29 14:05:00,72.0,56.3,30.01,ENE,68,1.3,1.3,58,0.00,,,0.00,WUHU216HW,2013-09-29 18:05:00,
2013-09-29 14:30:00,72.0,55.9,30.00,ESE,113,0.4,0.4,57,0.00,,,0.00,WUHU216HW,2013-09-29 18:30:00,
2013-09-29 14:35:00,72.0,55.9,30.00,ESE,113,0.4,0.4,57,0.00,,,0.00,WUHU216HW,2013-09-29 18:35:00,
2013-09-29 15:00:00,72.7,56.5,29.99,NNE,23,0.9,0.9,57,0.00,,,0.00,WUHU216HW,2013-09-29 19:00:00,
2013-09-29 15:05:00,72.7,56.5,29.99,NNE,23,0.9,0.9,57,0.00,,,0.00,WUHU216HW,2013-09-29 19:05:00,
2013-09-29 15:30:00,72.0,56.3,29.99,North,0,1.1,1.1,58,0.00,,,0.00,WUHU216HW,2013-09-29 19:30:00,
2013-09-29 15:35:00,72.0,56.3,29.99,North,0,1.1,1.1,58,0.00,,,0.00,WUHU216HW,2013-09-29 19:35:00,
2013-09-29 16:00:00,73.1,56.9,29.98,ENE,68,0.4,0.4,57,0.00,,,0.00,WUHU216HW,2013-09-29 20:00:00,
2013-09-29 16:05:00,73.1,56.9,29.98,ENE,68,0.4,0.4,57,0.00,,,0.00,WUHU216HW,2013-09-29 20:05:00,
2013-09-29 16:30:00,72.9,56.2,29.97,NE,45,1.1,1.1,56,0.00,,,0.00,WUHU216HW,2013-09-29 20:30:00,
2013-09-29 16:35:00,72.9,56.2,29.97,NE,45,1.1,1.1,56,0.00,,,0.00,WUHU216HW,2013-09-29 20:35:00,
2013-09-29 17:00:00,71.8,56.3,29.97,East,90,1.3,1.3,58,0.00,,,0.00,WUHU216HW,2013-09-29 21:00:00,
2013-09-29 17:05:00,71.8,56.3,29.97,East,90,1.3,1.3,58,0.00,,,0.00,WUHU216HW,2013-09-29 21:05:00,
2013-09-29 17:30:00,71.3,55.7,29.97,SE,135,0.4,0.4,58,0.00,,,0.00,WUHU216HW,2013-09-29 21:30:00,
2013-09-29 17:35:00,71.3,55.7,29.97,SE,135,0.4,0.4,58,0.00,,,0.00,WUHU216HW,2013-09-29 21:35:00,
2013-09-29 18:00:00,70.4,55.5,29.97,East,90,0.0,0.0,59,0.00,,,0.00,WUHU216HW,2013-09-29 22:00:00,
2013-09-29 18:05:00,70.4,55.5,29.97,East,90,0.0,0.0,59,0.00,,,0.00,WUHU216HW,2013-09-29 22:05:00,
2013-09-29 18:30:00,70.0,56.4,29.98,WSW,248,0.0,0.0,62,0.00,,,0.00,WUHU216HW,2013-09-29 22:30:00,
2013-09-29 18:35:00,70.0,56.4,29.98,WSW,248,0.0,0.0,62,0.00,,,0.00,WUHU216HW,2013-09-29 22:35:00,
2013-09-29 19:00:00,69.3,56.6,29.98,WSW,248,0.0,0.0,64,0.00,,,0.00,WUHU216HW,2013-09-29 23:00:00,
2013-09-29 19:05:00,69.3,56.6,29.98,WSW,248,0.0,0.0,64,0.00,,,0.00,WUHU216HW,2013-09-29 23:05:00,
2013-09-29 19:30:00,68.0,56.3,29.98,WSW,248,0.0,0.0,66,0.00,,,0.00,WUHU216HW,2013-09-29 23:30:00,
2013-09-29 19:35:00,68.0,56.3,29.98,WSW,248,0.0,0.0,66,0.00,,,0.00,WUHU216HW,2013-09-29 23:35:00,
2013-09-29 20:00:00,66.6,55.7,29.99,WSW,248,0.0,0.0,68,0.00,,,0.00,WUHU216HW,2013-09-30 00:00:00,
2013-09-29 20:05:00,66.6,55.7,29.99,WSW,248,0.0,0.0,68,0.00,,,0.00,WUHU216HW,2013-09-30 00:05:00,
2013-09-29 20:30:00,65.7,55.7,30.00,West,270,0.7,0.7,70,0.00,,,0.00,WUHU216HW,2013-09-30 00:30:00,
2013-09-29 20:35:00,65.7,55.7,30.00,West,270,0.7,0.7,70,0.00,,,0.00,WUHU216HW,2013-09-30 00:35:00,
2013-09-29 21:00:00,65.0,55.8,29.99,WNW,293,0.0,0.0,72,0.00,,,0.00,WUHU216HW,2013-09-30 01:00:00,
2013-09-29 21:05:00,65.0,55.8,29.99,WNW,293,0.0,0.0,72,0.00,,,0.00,WUHU216HW,2013-09-30 01:05:00,
2013-09-29 21:30:00,63.7,55.3,30.00,West,270,0.2,0.2,74,0.00,,,0.00,WUHU216HW,2013-09-30 01:30:00,
2013-09-29 21:35:00,63.7,55.3,30.00,West,270,0.2,0.2,74,0.00,,,0.00,WUHU216HW,2013-09-30 01:35:00,
2013-09-29 22:00:00,63.2,55.4,29.99,NW,315,0.0,0.0,76,0.00,,,0.00,WUHU216HW,2013-09-30 02:00:00,
2013-09-29 22:05:00,63.2,55.4,29.99,NW,315,0.0,0.0,76,0.00,,,0.00,WUHU216HW,2013-09-30 02:05:00,
2013-09-29 22:30:00,63.0,55.3,29.99,NW,315,0.0,0.0,76,0.00,,,0.00,WUHU216HW,2013-09-30 02:30:00,
2013-09-29 22:35:00,63.0,55.3,29.99,NW,315,0.0,0.0,76,0.00,,,0.00,WUHU216HW,2013-09-30 02:35:00,
2013-09-29 23:00:00,61.6,54.6,29.99,NW,315,0.0,0.0,78,0.00,,,0.00,WUHU216HW,2013-09-30 03:00:00,
2013-09-29 23:05:00,61.6,54.6,29.99,NW,315,0.0,0.0,78,0.00,,,0.00,WUHU216HW,2013-09-30 03:05:00,
2013-09-29 23:30:00,61.7,55.2,29.98,West,270,0.0,0.0,79,0.00,,,0.00,WUHU216HW,2013-09-30 03:30:00,
2013-09-29 23:35:00,61.7,55.2,29.98,West,270,0.0,0.0,79,0.00,,,0.00,WUHU216HW,2013-09-30 03:35:00,